sensor_id;sensor_type;location;lat;lon;timestamp;P1;durP1;ratioP1;P2;durP2;ratioP2
46447;SDS011;32145;50.390;30.778;2024-01-30T00:01:59;46.33;;;23.02;;
46447;SDS011;32145;50.390;30.778;2024-01-30T00:04:55;44.97;;;23.30;;
46447;SDS011;32145;50.390;30.778;2024-01-30T00:07:50;43.80;;;23.30;;
46447;SDS011;32145;50.390;30.778;2024-01-30T00:10:44;41.58;;;23.10;;
46447;SDS011;32145;50.390;30.778;2024-01-30T00:13:38;46.20;;;21.80;;
46447;SDS011;32145;50.390;30.778;2024-01-30T00:16:32;44.75;;;23.23;;
46447;SDS011;32145;50.390;30.778;2024-01-30T00:19:27;39.33;;;21.42;;
46447;SDS011;32145;50.390;30.778;2024-01-30T00:22:23;45.30;;;22.95;;
46447;SDS011;32145;50.390;30.778;2024-01-30T00:25:17;40.97;;;20.92;;
46447;SDS011;32145;50.390;30.778;2024-01-30T00:28:11;40.30;;;20.60;;
46447;SDS011;32145;50.390;30.778;2024-01-30T00:31:06;37.13;;;20.10;;
46447;SDS011;32145;50.390;30.778;2024-01-30T00:34:00;38.67;;;20.55;;
46447;SDS011;32145;50.390;30.778;2024-01-30T00:36:54;48.20;;;23.10;;
46447;SDS011;32145;50.390;30.778;2024-01-30T00:39:50;53.85;;;23.88;;
46447;SDS011;32145;50.390;30.778;2024-01-30T00:42:45;43.88;;;21.50;;
46447;SDS011;32145;50.390;30.778;2024-01-30T00:45:39;34.40;;;18.92;;
46447;SDS011;32145;50.390;30.778;2024-01-30T00:48:33;31.25;;;17.73;;
46447;SDS011;32145;50.390;30.778;2024-01-30T00:51:28;34.03;;;17.75;;
46447;SDS011;32145;50.390;30.778;2024-01-30T00:54:22;36.42;;;18.58;;
46447;SDS011;32145;50.390;30.778;2024-01-30T00:57:18;32.20;;;17.92;;
46447;SDS011;32145;50.390;30.778;2024-01-30T01:00:12;34.38;;;17.70;;
46447;SDS011;32145;50.390;30.778;2024-01-30T01:03:07;36.97;;;17.83;;
46447;SDS011;32145;50.390;30.778;2024-01-30T01:06:02;51.88;;;20.58;;
46447;SDS011;32145;50.390;30.778;2024-01-30T01:08:56;71.22;;;34.00;;
46447;SDS011;32145;50.390;30.778;2024-01-30T01:11:51;75.35;;;25.83;;
46447;SDS011;32145;50.390;30.778;2024-01-30T01:14:46;45.05;;;19.92;;
46447;SDS011;32145;50.390;30.778;2024-01-30T01:17:41;33.40;;;16.30;;
46447;SDS011;32145;50.390;30.778;2024-01-30T01:20:35;31.17;;;15.48;;
46447;SDS011;32145;50.390;30.778;2024-01-30T01:23:29;30.38;;;15.73;;
46447;SDS011;32145;50.390;30.778;2024-01-30T01:26:26;29.05;;;14.80;;
46447;SDS011;32145;50.390;30.778;2024-01-30T01:29:22;27.50;;;14.63;;
46447;SDS011;32145;50.390;30.778;2024-01-30T01:32:20;25.95;;;14.85;;
46447;SDS011;32145;50.390;30.778;2024-01-30T01:35:16;25.15;;;13.27;;
46447;SDS011;32145;50.390;30.778;2024-01-30T01:38:12;26.90;;;12.98;;
46447;SDS011;32145;50.390;30.778;2024-01-30T01:41:09;23.77;;;12.95;;
46447;SDS011;32145;50.390;30.778;2024-01-30T01:44:05;21.73;;;12.85;;
46447;SDS011;32145;50.390;30.778;2024-01-30T01:47:02;22.85;;;13.07;;
46447;SDS011;32145;50.390;30.778;2024-01-30T01:50:00;21.70;;;11.13;;
46447;SDS011;32145;50.390;30.778;2024-01-30T01:52:56;24.95;;;13.45;;
46447;SDS011;32145;50.390;30.778;2024-01-30T01:55:52;24.23;;;12.77;;
46447;SDS011;32145;50.390;30.778;2024-01-30T01:58:50;22.95;;;13.48;;
46447;SDS011;32145;50.390;30.778;2024-01-30T02:01:50;24.65;;;13.35;;
46447;SDS011;32145;50.390;30.778;2024-01-30T02:04:48;23.90;;;13.23;;
46447;SDS011;32145;50.390;30.778;2024-01-30T02:07:46;25.77;;;13.70;;
46447;SDS011;32145;50.390;30.778;2024-01-30T02:10:42;24.63;;;13.50;;
46447;SDS011;32145;50.390;30.778;2024-01-30T02:13:38;25.98;;;13.35;;
46447;SDS011;32145;50.390;30.778;2024-01-30T02:16:37;30.20;;;15.17;;
46447;SDS011;32145;50.390;30.778;2024-01-30T02:19:33;25.77;;;13.52;;
46447;SDS011;32145;50.390;30.778;2024-01-30T02:22:29;23.20;;;12.75;;
46447;SDS011;32145;50.390;30.778;2024-01-30T02:25:29;23.33;;;13.23;;
46447;SDS011;32145;50.390;30.778;2024-01-30T02:28:24;21.30;;;11.63;;
46447;SDS011;32145;50.390;30.778;2024-01-30T02:31:18;21.67;;;12.05;;
46447;SDS011;32145;50.390;30.778;2024-01-30T02:34:13;22.52;;;12.45;;
46447;SDS011;32145;50.390;30.778;2024-01-30T02:37:09;23.20;;;12.10;;
46447;SDS011;32145;50.390;30.778;2024-01-30T02:40:07;23.05;;;12.63;;
46447;SDS011;32145;50.390;30.778;2024-01-30T02:43:02;22.67;;;12.82;;
46447;SDS011;32145;50.390;30.778;2024-01-30T02:46:00;22.30;;;12.77;;
46447;SDS011;32145;50.390;30.778;2024-01-30T02:48:57;23.42;;;13.73;;
46447;SDS011;32145;50.390;30.778;2024-01-30T02:51:53;44.70;;;23.27;;
46447;SDS011;32145;50.390;30.778;2024-01-30T02:54:48;35.33;;;18.02;;
46447;SDS011;32145;50.390;30.778;2024-01-30T02:57:43;32.75;;;15.55;;
46447;SDS011;32145;50.390;30.778;2024-01-30T03:00:40;31.17;;;15.80;;
46447;SDS011;32145;50.390;30.778;2024-01-30T03:03:34;28.75;;;15.02;;
46447;SDS011;32145;50.390;30.778;2024-01-30T03:06:28;26.15;;;14.00;;
46447;SDS011;32145;50.390;30.778;2024-01-30T03:09:25;28.30;;;14.60;;
46447;SDS011;32145;50.390;30.778;2024-01-30T03:12:19;26.05;;;13.98;;
46447;SDS011;32145;50.390;30.778;2024-01-30T03:15:15;25.90;;;13.63;;
46447;SDS011;32145;50.390;30.778;2024-01-30T03:18:09;25.73;;;13.77;;
46447;SDS011;32145;50.390;30.778;2024-01-30T03:21:03;25.02;;;13.75;;
46447;SDS011;32145;50.390;30.778;2024-01-30T03:24:00;27.48;;;14.50;;
46447;SDS011;32145;50.390;30.778;2024-01-30T03:26:56;27.88;;;14.98;;
46447;SDS011;32145;50.390;30.778;2024-01-30T03:29:51;26.80;;;14.00;;
46447;SDS011;32145;50.390;30.778;2024-01-30T03:32:46;25.75;;;14.07;;
46447;SDS011;32145;50.390;30.778;2024-01-30T03:35:43;27.00;;;14.40;;
46447;SDS011;32145;50.390;30.778;2024-01-30T03:38:39;24.38;;;13.32;;
46447;SDS011;32145;50.390;30.778;2024-01-30T03:41:36;24.20;;;14.07;;
46447;SDS011;32145;50.390;30.778;2024-01-30T03:44:32;22.92;;;13.35;;
46447;SDS011;32145;50.390;30.778;2024-01-30T03:47:29;25.42;;;13.63;;
46447;SDS011;32145;50.390;30.778;2024-01-30T03:50:26;24.10;;;13.75;;
46447;SDS011;32145;50.390;30.778;2024-01-30T03:53:23;26.02;;;14.18;;
46447;SDS011;32145;50.390;30.778;2024-01-30T03:56:19;25.95;;;14.80;;
46447;SDS011;32145;50.390;30.778;2024-01-30T03:59:15;30.42;;;15.65;;
46447;SDS011;32145;50.390;30.778;2024-01-30T04:02:12;35.30;;;18.65;;
46447;SDS011;32145;50.390;30.778;2024-01-30T04:05:08;30.77;;;16.00;;
46447;SDS011;32145;50.390;30.778;2024-01-30T04:08:04;32.22;;;16.23;;
46447;SDS011;32145;50.390;30.778;2024-01-30T04:10:59;24.15;;;13.98;;
46447;SDS011;32145;50.390;30.778;2024-01-30T04:13:57;25.85;;;14.55;;
46447;SDS011;32145;50.390;30.778;2024-01-30T04:16:54;28.25;;;15.23;;
46447;SDS011;32145;50.390;30.778;2024-01-30T04:19:50;28.85;;;14.85;;
46447;SDS011;32145;50.390;30.778;2024-01-30T04:22:47;26.10;;;14.63;;
46447;SDS011;32145;50.390;30.778;2024-01-30T04:25:44;23.70;;;13.35;;
46447;SDS011;32145;50.390;30.778;2024-01-30T04:28:41;31.98;;;17.05;;
46447;SDS011;32145;50.390;30.778;2024-01-30T04:31:37;24.90;;;13.48;;
46447;SDS011;32145;50.390;30.778;2024-01-30T04:34:34;25.80;;;13.88;;
46447;SDS011;32145;50.390;30.778;2024-01-30T04:37:30;25.13;;;13.27;;
46447;SDS011;32145;50.390;30.778;2024-01-30T04:40:26;24.20;;;13.05;;
46447;SDS011;32145;50.390;30.778;2024-01-30T04:43:24;26.52;;;13.63;;
46447;SDS011;32145;50.390;30.778;2024-01-30T04:46:20;25.65;;;13.50;;
46447;SDS011;32145;50.390;30.778;2024-01-30T04:49:14;32.10;;;15.75;;
46447;SDS011;32145;50.390;30.778;2024-01-30T04:52:09;31.77;;;15.60;;
46447;SDS011;32145;50.390;30.778;2024-01-30T04:55:04;26.58;;;13.93;;
46447;SDS011;32145;50.390;30.778;2024-01-30T04:57:58;30.17;;;17.30;;
46447;SDS011;32145;50.390;30.778;2024-01-30T05:00:54;39.53;;;20.33;;
46447;SDS011;32145;50.390;30.778;2024-01-30T05:03:48;30.38;;;16.20;;
46447;SDS011;32145;50.390;30.778;2024-01-30T05:06:45;28.33;;;15.40;;
46447;SDS011;32145;50.390;30.778;2024-01-30T05:09:41;25.00;;;13.88;;
46447;SDS011;32145;50.390;30.778;2024-01-30T05:12:35;22.92;;;13.23;;
46447;SDS011;32145;50.390;30.778;2024-01-30T05:15:29;25.60;;;13.32;;
46447;SDS011;32145;50.390;30.778;2024-01-30T05:18:25;30.67;;;14.75;;
46447;SDS011;32145;50.390;30.778;2024-01-30T05:21:19;26.50;;;13.93;;
46447;SDS011;32145;50.390;30.778;2024-01-30T05:24:14;23.50;;;12.90;;
46447;SDS011;32145;50.390;30.778;2024-01-30T05:27:08;25.95;;;13.38;;
46447;SDS011;32145;50.390;30.778;2024-01-30T05:30:02;25.30;;;13.43;;
46447;SDS011;32145;50.390;30.778;2024-01-30T05:32:57;26.20;;;13.75;;
46447;SDS011;32145;50.390;30.778;2024-01-30T05:35:53;32.17;;;15.48;;
46447;SDS011;32145;50.390;30.778;2024-01-30T05:38:48;24.38;;;14.50;;
46447;SDS011;32145;50.390;30.778;2024-01-30T05:41:42;24.85;;;13.80;;
46447;SDS011;32145;50.390;30.778;2024-01-30T05:44:36;25.75;;;13.45;;
46447;SDS011;32145;50.390;30.778;2024-01-30T05:47:31;23.80;;;14.23;;
46447;SDS011;32145;50.390;30.778;2024-01-30T05:50:25;24.67;;;13.05;;
46447;SDS011;32145;50.390;30.778;2024-01-30T05:53:21;24.83;;;13.55;;
46447;SDS011;32145;50.390;30.778;2024-01-30T05:56:17;25.65;;;13.55;;
46447;SDS011;32145;50.390;30.778;2024-01-30T05:59:13;21.42;;;12.05;;
46447;SDS011;32145;50.390;30.778;2024-01-30T06:02:10;24.42;;;12.73;;
46447;SDS011;32145;50.390;30.778;2024-01-30T06:05:06;21.67;;;12.30;;
46447;SDS011;32145;50.390;30.778;2024-01-30T06:08:03;32.88;;;19.13;;
46447;SDS011;32145;50.390;30.778;2024-01-30T06:11:02;23.55;;;14.02;;
46447;SDS011;32145;50.390;30.778;2024-01-30T06:13:58;27.33;;;14.38;;
46447;SDS011;32145;50.390;30.778;2024-01-30T06:16:54;28.48;;;14.70;;
46447;SDS011;32145;50.390;30.778;2024-01-30T06:19:51;27.27;;;14.20;;
46447;SDS011;32145;50.390;30.778;2024-01-30T06:22:48;26.80;;;14.52;;
46447;SDS011;32145;50.390;30.778;2024-01-30T06:25:43;40.85;;;21.02;;
46447;SDS011;32145;50.390;30.778;2024-01-30T06:28:39;46.53;;;23.02;;
46447;SDS011;32145;50.390;30.778;2024-01-30T06:31:34;27.75;;;15.25;;
46447;SDS011;32145;50.390;30.778;2024-01-30T06:34:34;26.38;;;13.93;;
46447;SDS011;32145;50.390;30.778;2024-01-30T06:37:28;27.10;;;13.50;;
46447;SDS011;32145;50.390;30.778;2024-01-30T06:40:22;22.52;;;13.35;;
46447;SDS011;32145;50.390;30.778;2024-01-30T06:43:17;24.98;;;13.93;;
46447;SDS011;32145;50.390;30.778;2024-01-30T06:46:12;22.05;;;12.82;;
46447;SDS011;32145;50.390;30.778;2024-01-30T06:49:09;25.10;;;13.68;;
46447;SDS011;32145;50.390;30.778;2024-01-30T06:52:06;22.63;;;13.18;;
46447;SDS011;32145;50.390;30.778;2024-01-30T06:55:00;23.92;;;12.48;;
46447;SDS011;32145;50.390;30.778;2024-01-30T06:57:57;25.20;;;13.98;;
46447;SDS011;32145;50.390;30.778;2024-01-30T07:01:13;26.92;;;14.00;;
46447;SDS011;32145;50.390;30.778;2024-01-30T07:04:08;27.88;;;15.23;;
46447;SDS011;32145;50.390;30.778;2024-01-30T07:07:02;25.75;;;13.98;;
46447;SDS011;32145;50.390;30.778;2024-01-30T07:09:58;24.70;;;13.93;;
46447;SDS011;32145;50.390;30.778;2024-01-30T07:12:55;23.23;;;13.10;;
46447;SDS011;32145;50.390;30.778;2024-01-30T07:15:49;20.80;;;11.40;;
46447;SDS011;32145;50.390;30.778;2024-01-30T07:18:45;22.90;;;13.38;;
46447;SDS011;32145;50.390;30.778;2024-01-30T07:21:39;22.98;;;12.88;;
46447;SDS011;32145;50.390;30.778;2024-01-30T07:24:34;23.30;;;13.45;;
46447;SDS011;32145;50.390;30.778;2024-01-30T07:27:28;19.60;;;9.90;;
46447;SDS011;32145;50.390;30.778;2024-01-30T07:30:24;25.95;;;14.15;;
46447;SDS011;32145;50.390;30.778;2024-01-30T07:33:18;24.48;;;14.13;;
46447;SDS011;32145;50.390;30.778;2024-01-30T07:36:14;16.95;;;7.68;;
46447;SDS011;32145;50.390;30.778;2024-01-30T07:39:08;22.90;;;12.20;;
46447;SDS011;32145;50.390;30.778;2024-01-30T07:42:03;19.58;;;11.73;;
46447;SDS011;32145;50.390;30.778;2024-01-30T07:44:58;24.77;;;12.13;;
46447;SDS011;32145;50.390;30.778;2024-01-30T07:47:52;22.45;;;11.75;;
46447;SDS011;32145;50.390;30.778;2024-01-30T07:50:46;23.55;;;13.27;;
46447;SDS011;32145;50.390;30.778;2024-01-30T07:53:42;23.23;;;13.05;;
46447;SDS011;32145;50.390;30.778;2024-01-30T07:56:38;25.63;;;12.93;;
46447;SDS011;32145;50.390;30.778;2024-01-30T07:59:32;23.65;;;14.10;;
46447;SDS011;32145;50.390;30.778;2024-01-30T08:02:27;26.77;;;13.98;;
46447;SDS011;32145;50.390;30.778;2024-01-30T08:05:21;26.27;;;13.40;;
46447;SDS011;32145;50.390;30.778;2024-01-30T08:08:16;24.58;;;13.07;;
46447;SDS011;32145;50.390;30.778;2024-01-30T08:11:12;23.95;;;12.95;;
46447;SDS011;32145;50.390;30.778;2024-01-30T08:14:08;23.63;;;12.13;;
46447;SDS011;32145;50.390;30.778;2024-01-30T08:17:05;21.00;;;12.07;;
46447;SDS011;32145;50.390;30.778;2024-01-30T08:20:01;20.30;;;10.30;;
46447;SDS011;32145;50.390;30.778;2024-01-30T08:22:57;29.48;;;15.32;;
46447;SDS011;32145;50.390;30.778;2024-01-30T08:25:54;21.63;;;11.75;;
46447;SDS011;32145;50.390;30.778;2024-01-30T08:28:50;23.33;;;12.57;;
46447;SDS011;32145;50.390;30.778;2024-01-30T08:31:45;26.42;;;12.02;;
46447;SDS011;32145;50.390;30.778;2024-01-30T08:34:39;24.80;;;13.23;;
46447;SDS011;32145;50.390;30.778;2024-01-30T08:37:33;22.95;;;12.38;;
46447;SDS011;32145;50.390;30.778;2024-01-30T08:40:29;25.67;;;12.70;;
46447;SDS011;32145;50.390;30.778;2024-01-30T08:43:24;21.92;;;11.95;;
46447;SDS011;32145;50.390;30.778;2024-01-30T08:46:20;22.02;;;11.88;;
46447;SDS011;32145;50.390;30.778;2024-01-30T08:49:16;19.30;;;10.40;;
46447;SDS011;32145;50.390;30.778;2024-01-30T08:52:11;19.35;;;11.13;;
46447;SDS011;32145;50.390;30.778;2024-01-30T08:55:05;19.65;;;10.18;;
46447;SDS011;32145;50.390;30.778;2024-01-30T08:58:00;20.42;;;10.73;;
46447;SDS011;32145;50.390;30.778;2024-01-30T09:00:54;18.33;;;10.48;;
46447;SDS011;32145;50.390;30.778;2024-01-30T09:03:52;19.50;;;9.82;;
46447;SDS011;32145;50.390;30.778;2024-01-30T09:06:47;20.23;;;10.48;;
46447;SDS011;32145;50.390;30.778;2024-01-30T09:09:42;17.60;;;9.48;;
46447;SDS011;32145;50.390;30.778;2024-01-30T09:12:36;17.05;;;9.35;;
46447;SDS011;32145;50.390;30.778;2024-01-30T09:15:30;17.48;;;9.85;;
46447;SDS011;32145;50.390;30.778;2024-01-30T09:18:25;16.50;;;9.52;;
46447;SDS011;32145;50.390;30.778;2024-01-30T09:21:20;19.27;;;9.73;;
46447;SDS011;32145;50.390;30.778;2024-01-30T09:24:15;15.90;;;9.13;;
46447;SDS011;32145;50.390;30.778;2024-01-30T09:27:09;12.82;;;6.05;;
46447;SDS011;32145;50.390;30.778;2024-01-30T09:30:04;13.55;;;7.93;;
46447;SDS011;32145;50.390;30.778;2024-01-30T09:32:59;15.35;;;8.15;;
46447;SDS011;32145;50.390;30.778;2024-01-30T09:35:53;14.20;;;7.88;;
46447;SDS011;32145;50.390;30.778;2024-01-30T09:38:49;14.10;;;8.52;;
46447;SDS011;32145;50.390;30.778;2024-01-30T09:41:44;13.30;;;6.72;;
46447;SDS011;32145;50.390;30.778;2024-01-30T09:44:42;20.20;;;9.18;;
46447;SDS011;32145;50.390;30.778;2024-01-30T09:47:39;16.33;;;7.90;;
46447;SDS011;32145;50.390;30.778;2024-01-30T09:50:34;14.77;;;8.20;;
46447;SDS011;32145;50.390;30.778;2024-01-30T09:53:29;15.60;;;8.98;;
46447;SDS011;32145;50.390;30.778;2024-01-30T09:56:25;15.90;;;8.43;;
46447;SDS011;32145;50.390;30.778;2024-01-30T09:59:19;17.10;;;8.82;;
46447;SDS011;32145;50.390;30.778;2024-01-30T10:02:13;15.98;;;8.73;;
46447;SDS011;32145;50.390;30.778;2024-01-30T10:05:02;15.77;;;7.15;;
46447;SDS011;32145;50.390;30.778;2024-01-30T10:07:59;16.92;;;8.93;;
46447;SDS011;32145;50.390;30.778;2024-01-30T10:10:53;15.05;;;7.85;;
46447;SDS011;32145;50.390;30.778;2024-01-30T10:13:48;18.27;;;7.93;;
46447;SDS011;32145;50.390;30.778;2024-01-30T10:16:45;17.48;;;9.27;;
46447;SDS011;32145;50.390;30.778;2024-01-30T10:19:42;19.42;;;10.32;;
46447;SDS011;32145;50.390;30.778;2024-01-30T10:22:39;18.17;;;10.05;;
46447;SDS011;32145;50.390;30.778;2024-01-30T10:25:36;17.00;;;8.65;;
46447;SDS011;32145;50.390;30.778;2024-01-30T10:28:33;15.73;;;8.27;;
46447;SDS011;32145;50.390;30.778;2024-01-30T10:31:31;16.85;;;8.77;;
46447;SDS011;32145;50.390;30.778;2024-01-30T10:34:25;16.08;;;9.18;;
46447;SDS011;32145;50.390;30.778;2024-01-30T10:37:19;13.93;;;8.82;;
46447;SDS011;32145;50.390;30.778;2024-01-30T10:40:18;14.80;;;8.63;;
46447;SDS011;32145;50.390;30.778;2024-01-30T10:43:15;17.30;;;9.35;;
46447;SDS011;32145;50.390;30.778;2024-01-30T10:46:14;15.88;;;9.50;;
46447;SDS011;32145;50.390;30.778;2024-01-30T10:49:13;15.73;;;8.98;;
46447;SDS011;32145;50.390;30.778;2024-01-30T10:52:09;22.27;;;10.57;;
46447;SDS011;32145;50.390;30.778;2024-01-30T10:55:05;20.23;;;10.50;;
46447;SDS011;32145;50.390;30.778;2024-01-30T10:58:00;20.95;;;9.77;;
46447;SDS011;32145;50.390;30.778;2024-01-30T11:00:55;15.63;;;8.38;;
46447;SDS011;32145;50.390;30.778;2024-01-30T11:03:50;17.17;;;7.90;;
46447;SDS011;32145;50.390;30.778;2024-01-30T11:06:46;18.73;;;9.00;;
46447;SDS011;32145;50.390;30.778;2024-01-30T11:09:49;20.93;;;9.83;;
46447;SDS011;32145;50.390;30.778;2024-01-30T11:12:43;12.85;;;6.18;;
46447;SDS011;32145;50.390;30.778;2024-01-30T11:15:40;14.95;;;9.02;;
46447;SDS011;32145;50.390;30.778;2024-01-30T11:18:35;15.38;;;9.32;;
46447;SDS011;32145;50.390;30.778;2024-01-30T11:21:29;18.42;;;9.07;;
46447;SDS011;32145;50.390;30.778;2024-01-30T11:24:25;16.52;;;9.80;;
46447;SDS011;32145;50.390;30.778;2024-01-30T11:27:20;14.90;;;7.40;;
46447;SDS011;32145;50.390;30.778;2024-01-30T11:30:21;14.90;;;7.20;;
46447;SDS011;32145;50.390;30.778;2024-01-30T11:33:27;13.40;;;7.47;;
46447;SDS011;32145;50.390;30.778;2024-01-30T11:36:22;12.27;;;7.10;;
46447;SDS011;32145;50.390;30.778;2024-01-30T11:39:19;13.88;;;6.00;;
46447;SDS011;32145;50.390;30.778;2024-01-30T11:42:17;15.32;;;8.38;;
46447;SDS011;32145;50.390;30.778;2024-01-30T11:45:13;14.85;;;8.20;;
46447;SDS011;32145;50.390;30.778;2024-01-30T11:48:09;14.40;;;7.78;;
46447;SDS011;32145;50.390;30.778;2024-01-30T11:51:07;19.35;;;7.68;;
46447;SDS011;32145;50.390;30.778;2024-01-30T11:54:04;15.00;;;6.15;;
46447;SDS011;32145;50.390;30.778;2024-01-30T11:57:00;12.98;;;6.72;;
46447;SDS011;32145;50.390;30.778;2024-01-30T11:59:58;14.18;;;7.47;;
46447;SDS011;32145;50.390;30.778;2024-01-30T12:02:55;12.55;;;7.40;;
46447;SDS011;32145;50.390;30.778;2024-01-30T12:05:54;15.60;;;7.78;;
46447;SDS011;32145;50.390;30.778;2024-01-30T12:08:56;11.45;;;6.63;;
46447;SDS011;32145;50.390;30.778;2024-01-30T12:11:51;11.93;;;7.15;;
46447;SDS011;32145;50.390;30.778;2024-01-30T12:14:46;13.40;;;7.13;;
46447;SDS011;32145;50.390;30.778;2024-01-30T12:17:42;12.30;;;7.07;;
46447;SDS011;32145;50.390;30.778;2024-01-30T12:20:36;10.73;;;6.50;;
46447;SDS011;32145;50.390;30.778;2024-01-30T12:23:31;14.55;;;7.28;;
46447;SDS011;32145;50.390;30.778;2024-01-30T12:26:25;15.18;;;7.75;;
46447;SDS011;32145;50.390;30.778;2024-01-30T12:29:19;14.85;;;8.00;;
46447;SDS011;32145;50.390;30.778;2024-01-30T12:32:14;12.07;;;6.55;;
46447;SDS011;32145;50.390;30.778;2024-01-30T12:35:11;13.40;;;6.53;;
46447;SDS011;32145;50.390;30.778;2024-01-30T12:38:06;15.63;;;6.75;;
46447;SDS011;32145;50.390;30.778;2024-01-30T12:41:00;17.33;;;8.70;;
46447;SDS011;32145;50.390;30.778;2024-01-30T12:43:57;13.57;;;6.85;;
46447;SDS011;32145;50.390;30.778;2024-01-30T12:46:54;12.88;;;7.15;;
46447;SDS011;32145;50.390;30.778;2024-01-30T12:49:50;12.18;;;7.25;;
46447;SDS011;32145;50.390;30.778;2024-01-30T12:52:48;16.30;;;8.32;;
46447;SDS011;32145;50.390;30.778;2024-01-30T12:55:44;13.45;;;7.13;;
46447;SDS011;32145;50.390;30.778;2024-01-30T12:58:41;12.55;;;6.85;;
46447;SDS011;32145;50.390;30.778;2024-01-30T13:01:37;13.98;;;7.18;;
46447;SDS011;32145;50.390;30.778;2024-01-30T13:04:33;12.70;;;6.10;;
46447;SDS011;32145;50.390;30.778;2024-01-30T13:07:30;13.70;;;7.50;;
46447;SDS011;32145;50.390;30.778;2024-01-30T13:10:28;15.98;;;7.20;;
46447;SDS011;32145;50.390;30.778;2024-01-30T13:13:24;17.63;;;7.28;;
46447;SDS011;32145;50.390;30.778;2024-01-30T13:16:20;13.75;;;7.30;;
46447;SDS011;32145;50.390;30.778;2024-01-30T13:19:16;18.52;;;8.55;;
46447;SDS011;32145;50.390;30.778;2024-01-30T13:22:13;18.05;;;7.45;;
46447;SDS011;32145;50.390;30.778;2024-01-30T13:25:09;13.93;;;7.45;;
46447;SDS011;32145;50.390;30.778;2024-01-30T13:28:07;13.80;;;6.57;;
46447;SDS011;32145;50.390;30.778;2024-01-30T13:31:01;13.30;;;7.65;;
46447;SDS011;32145;50.390;30.778;2024-01-30T13:33:56;14.55;;;8.05;;
46447;SDS011;32145;50.390;30.778;2024-01-30T13:36:50;12.82;;;6.60;;
46447;SDS011;32145;50.390;30.778;2024-01-30T13:39:44;12.85;;;6.57;;
46447;SDS011;32145;50.390;30.778;2024-01-30T13:42:42;11.15;;;6.60;;
46447;SDS011;32145;50.390;30.778;2024-01-30T13:45:37;12.48;;;6.28;;
46447;SDS011;32145;50.390;30.778;2024-01-30T13:48:32;18.70;;;11.18;;
46447;SDS011;32145;50.390;30.778;2024-01-30T13:51:26;15.57;;;7.53;;
46447;SDS011;32145;50.390;30.778;2024-01-30T13:54:21;16.35;;;7.38;;
46447;SDS011;32145;50.390;30.778;2024-01-30T13:57:15;10.85;;;5.82;;
46447;SDS011;32145;50.390;30.778;2024-01-30T14:00:10;11.77;;;6.80;;
46447;SDS011;32145;50.390;30.778;2024-01-30T14:03:06;14.27;;;6.78;;
46447;SDS011;32145;50.390;30.778;2024-01-30T14:06:02;13.95;;;6.78;;
46447;SDS011;32145;50.390;30.778;2024-01-30T14:08:59;12.85;;;7.07;;
46447;SDS011;32145;50.390;30.778;2024-01-30T14:11:53;21.15;;;8.38;;
46447;SDS011;32145;50.390;30.778;2024-01-30T14:14:50;39.47;;;18.25;;
46447;SDS011;32145;50.390;30.778;2024-01-30T14:17:46;74.22;;;33.45;;
46447;SDS011;32145;50.390;30.778;2024-01-30T14:20:44;31.55;;;15.65;;
46447;SDS011;32145;50.390;30.778;2024-01-30T14:23:39;16.70;;;8.55;;
46447;SDS011;32145;50.390;30.778;2024-01-30T14:26:33;17.05;;;10.23;;
46447;SDS011;32145;50.390;30.778;2024-01-30T14:29:30;15.18;;;9.30;;
46447;SDS011;32145;50.390;30.778;2024-01-30T14:32:26;15.13;;;7.63;;
46447;SDS011;32145;50.390;30.778;2024-01-30T14:35:20;15.38;;;7.68;;
46447;SDS011;32145;50.390;30.778;2024-01-30T14:38:16;22.00;;;9.50;;
46447;SDS011;32145;50.390;30.778;2024-01-30T14:41:10;16.80;;;8.50;;
46447;SDS011;32145;50.390;30.778;2024-01-30T14:44:07;52.03;;;26.70;;
46447;SDS011;32145;50.390;30.778;2024-01-30T14:47:03;40.58;;;17.48;;
46447;SDS011;32145;50.390;30.778;2024-01-30T14:49:57;24.13;;;11.35;;
46447;SDS011;32145;50.390;30.778;2024-01-30T14:52:52;36.47;;;15.73;;
46447;SDS011;32145;50.390;30.778;2024-01-30T14:55:49;52.85;;;21.75;;
46447;SDS011;32145;50.390;30.778;2024-01-30T14:58:46;28.52;;;13.40;;
46447;SDS011;32145;50.390;30.778;2024-01-30T15:01:40;19.95;;;10.65;;
46447;SDS011;32145;50.390;30.778;2024-01-30T15:04:34;22.45;;;11.15;;
46447;SDS011;32145;50.390;30.778;2024-01-30T15:07:31;24.02;;;11.43;;
46447;SDS011;32145;50.390;30.778;2024-01-30T15:10:27;59.95;;;29.60;;
46447;SDS011;32145;50.390;30.778;2024-01-30T15:13:25;35.15;;;19.92;;
46447;SDS011;32145;50.390;30.778;2024-01-30T15:16:21;33.75;;;15.40;;
46447;SDS011;32145;50.390;30.778;2024-01-30T15:19:17;19.20;;;10.02;;
46447;SDS011;32145;50.390;30.778;2024-01-30T15:22:14;22.88;;;11.20;;
46447;SDS011;32145;50.390;30.778;2024-01-30T15:25:10;21.08;;;9.82;;
46447;SDS011;32145;50.390;30.778;2024-01-30T15:28:06;34.72;;;16.98;;
46447;SDS011;32145;50.390;30.778;2024-01-30T15:31:05;31.15;;;14.82;;
46447;SDS011;32145;50.390;30.778;2024-01-30T15:34:02;54.40;;;26.55;;
46447;SDS011;32145;50.390;30.778;2024-01-30T15:36:58;28.65;;;15.90;;
46447;SDS011;32145;50.390;30.778;2024-01-30T15:39:52;19.52;;;11.20;;
46447;SDS011;32145;50.390;30.778;2024-01-30T15:42:47;30.15;;;18.98;;
46447;SDS011;32145;50.390;30.778;2024-01-30T15:45:41;45.25;;;18.45;;
46447;SDS011;32145;50.390;30.778;2024-01-30T15:48:37;25.02;;;12.00;;
46447;SDS011;32145;50.390;30.778;2024-01-30T15:51:31;22.88;;;11.25;;
46447;SDS011;32145;50.390;30.778;2024-01-30T15:54:25;18.67;;;9.77;;
46447;SDS011;32145;50.390;30.778;2024-01-30T15:57:20;16.35;;;8.75;;
46447;SDS011;32145;50.390;30.778;2024-01-30T16:00:14;18.00;;;9.40;;
46447;SDS011;32145;50.390;30.778;2024-01-30T16:03:09;17.67;;;8.40;;
46447;SDS011;32145;50.390;30.778;2024-01-30T16:06:05;15.32;;;8.10;;
46447;SDS011;32145;50.390;30.778;2024-01-30T16:09:00;14.75;;;8.38;;
46447;SDS011;32145;50.390;30.778;2024-01-30T16:11:54;23.20;;;11.30;;
46447;SDS011;32145;50.390;30.778;2024-01-30T16:14:48;19.55;;;9.35;;
46447;SDS011;32145;50.390;30.778;2024-01-30T16:17:42;16.10;;;8.90;;
46447;SDS011;32145;50.390;30.778;2024-01-30T16:20:37;19.50;;;9.85;;
46447;SDS011;32145;50.390;30.778;2024-01-30T16:23:35;18.05;;;9.00;;
46447;SDS011;32145;50.390;30.778;2024-01-30T16:26:31;18.08;;;9.90;;
46447;SDS011;32145;50.390;30.778;2024-01-30T16:29:27;18.80;;;9.23;;
46447;SDS011;32145;50.390;30.778;2024-01-30T16:32:23;16.38;;;8.60;;
46447;SDS011;32145;50.390;30.778;2024-01-30T16:35:20;17.40;;;8.85;;
46447;SDS011;32145;50.390;30.778;2024-01-30T16:38:16;16.98;;;9.68;;
46447;SDS011;32145;50.390;30.778;2024-01-30T16:41:14;19.95;;;10.52;;
46447;SDS011;32145;50.390;30.778;2024-01-30T16:44:10;18.48;;;9.88;;
46447;SDS011;32145;50.390;30.778;2024-01-30T16:47:06;18.77;;;10.50;;
46447;SDS011;32145;50.390;30.778;2024-01-30T16:50:03;18.55;;;10.45;;
46447;SDS011;32145;50.390;30.778;2024-01-30T16:53:00;14.40;;;8.00;;
46447;SDS011;32145;50.390;30.778;2024-01-30T16:55:54;17.63;;;10.20;;
46447;SDS011;32145;50.390;30.778;2024-01-30T16:58:49;18.15;;;9.07;;